Time;durP1;ratioP1;P1;durP2;ratioP2;P2;SDS_P1;SDS_P2;PMS_P1;PMS_P2;Temp;Humidity;BMP_temperature;BMP_pressure;BME280_temperature;BME280_humidity;BME280_pressure;Samples;Min_cycle;Max_cycle;Signal;HPM_P1;HPM_P2
2023/05/09 00:00:42;;;;;;;5.93;5.43;;;;;;;-143.84;95.79;43956.25;5071569;28;20936;-69
2023/05/09 00:03:10;;;;;;;8.43;5.50;;;;;;;-143.84;95.78;43956.25;5071166;28;20483;-70
2023/05/09 00:05:37;;;;;;;6.97;6.27;;;;;;;-143.84;95.64;43952.44;5071245;28;20489;-70
2023/05/09 00:08:05;;;;;;;7.13;5.93;;;;;;;-143.84;95.34;43946.75;5071859;28;20429;-70
2023/05/09 00:10:32;;;;;;;8.67;6.17;;;;;;;-143.84;95.02;43944.84;5071348;28;20954;-70
2023/05/09 00:12:59;;;;;;;6.97;6.30;;;;;;;-143.84;95.12;43937.22;5071361;28;20998;-70
2023/05/09 00:15:27;;;;;;;6.30;5.50;;;;;;;-143.84;94.99;43942.94;5071476;28;20437;-70
2023/05/09 00:17:56;;;;;;;8.67;6.47;;;;;;;-143.84;94.89;43918.19;5071040;28;20433;-70
2023/05/09 00:20:24;;;;;;;8.30;5.73;;;;;;;-143.84;94.65;43927.69;5071040;28;20992;-70
2023/05/09 00:22:51;;;;;;;20.83;7.03;;;;;;;-143.84;94.48;43897.25;5071178;28;20520;-70
2023/05/09 00:25:18;;;;;;;12.93;6.20;;;;;;;-143.84;94.25;43918.19;5071311;28;20433;-70
2023/05/09 00:27:45;;;;;;;6.43;5.90;;;;;;;-143.84;94.35;43912.47;5071217;28;21377;-70
2023/05/09 00:30:12;;;;;;;6.30;5.80;;;;;;;-143.84;94.59;43899.16;5071216;28;20445;-70
2023/05/09 00:32:40;;;;;;;10.67;6.90;;;;;;;-143.84;94.89;43923.91;5071018;28;20485;-70
2023/05/09 00:35:09;;;;;;;6.27;5.60;;;;;;;-143.84;94.98;43918.19;5071308;28;20528;-71
2023/05/09 00:37:37;;;;;;;16.00;6.90;;;;;;;-143.84;95.13;43933.41;5070876;28;20441;-71
2023/05/09 00:40:06;;;;;;;17.77;6.60;;;;;;;-143.84;95.19;43950.53;5070702;28;20437;-70
2023/05/09 00:42:34;;;;;;;16.23;6.43;;;;;;;-143.84;95.65;43941.03;5070885;28;20445;-69
2023/05/09 00:45:01;;;;;;;11.70;7.13;;;;;;;-143.84;95.87;43981.00;5070289;28;20437;-69
2023/05/09 00:47:28;;;;;;;12.20;6.87;;;;;;;-143.84;96.16;43982.91;5070274;28;20532;-69
2023/05/09 00:49:58;;;;;;;7.97;7.17;;;;;;;-143.84;96.21;43982.91;5070577;28;20433;-69
2023/05/09 00:52:27;;;;;;;11.83;8.10;;;;;;;-143.84;96.16;43979.09;5070663;28;20513;-70
2023/05/09 00:54:55;;;;;;;15.40;7.10;;;;;;;-143.84;96.23;43992.41;5070247;28;20927;-69
2023/05/09 00:57:22;;;;;;;9.20;7.23;;;;;;;-143.84;96.09;43973.38;5070528;28;21012;-69
2023/05/09 00:59:49;;;;;;;10.07;7.90;;;;;;;-143.84;95.58;43958.16;5070324;28;20498;-69
2023/05/09 01:02:17;;;;;;;16.23;7.43;;;;;;;-143.84;95.86;43956.25;5070237;28;20510;-69
2023/05/09 01:04:45;;;;;;;8.20;6.10;;;;;;;-143.84;95.21;43939.13;5070303;28;20926;-70
2023/05/09 01:07:19;;;;;;;8.50;6.60;;;;;;;-143.84;94.74;43923.91;5070327;28;20479;-69
2023/05/09 01:09:56;;;;;;;7.10;5.87;;;;;;;-143.84;94.23;43912.47;5069596;28;20442;-69
2023/05/09 01:12:31;;;;;;;8.20;5.80;;;;;;;-143.84;94.17;43925.78;5070073;28;20561;-69
2023/05/09 01:15:06;;;;;;;13.20;5.50;;;;;;;-143.84;93.68;43872.50;5070539;28;20489;-69
2023/05/09 01:17:43;;;;;;;5.90;5.30;;;;;;;-143.84;93.16;43859.19;5070142;28;20444;-69
2023/05/09 01:20:18;;;;;;;8.70;5.83;;;;;;;-143.84;93.13;43861.06;5069940;28;20490;-69
2023/05/09 01:22:53;;;;;;;8.50;5.33;;;;;;;-143.84;92.41;43834.44;5070161;28;20437;-69
2023/05/09 01:25:45;;;;;;;11.03;7.50;;;;;;;-143.84;91.84;43828.72;5069913;28;20441;-69
2023/05/09 01:28:23;;;;;;;9.40;6.00;;;;;;;-143.84;91.78;43830.63;5069942;28;20441;-63
2023/05/09 01:30:55;;;;;;;8.40;6.57;;;;;;;-143.84;91.95;43817.31;5069838;28;20514;-63
2023/05/09 01:33:25;;;;;;;15.80;6.00;;;;;;;-143.84;92.03;43811.59;5069619;28;20534;-63
2023/05/09 01:36:02;;;;;;;9.70;6.50;;;;;;;-143.84;92.40;43840.13;5069577;28;20528;-63
2023/05/09 01:38:32;;;;;;;6.93;5.77;;;;;;;-143.84;91.95;43862.97;5069420;28;20529;-63
2023/05/09 01:41:00;;;;;;;9.00;6.70;;;;;;;-143.84;92.04;43840.13;5069569;28;20444;-63
2023/05/09 01:43:29;;;;;;;13.17;6.70;;;;;;;-143.84;92.17;43853.47;5069878;28;20834;-63
2023/05/09 01:45:59;;;;;;;9.10;6.20;;;;;;;-143.84;92.34;43826.81;5069551;28;20445;-63
2023/05/09 01:48:29;;;;;;;9.27;7.10;;;;;;;-143.84;92.72;43857.28;5069563;28;20437;-63
2023/05/09 01:50:57;;;;;;;11.00;7.30;;;;;;;-143.84;92.83;43862.97;5069321;28;20449;-63
2023/05/09 01:53:25;;;;;;;9.70;7.33;;;;;;;-143.84;92.71;43847.75;5069173;28;20541;-63
2023/05/09 01:55:54;;;;;;;8.70;6.80;;;;;;;-143.84;93.21;43834.44;5069373;28;20788;-63
2023/05/09 01:58:22;;;;;;;8.87;7.80;;;;;;;-143.84;93.46;43870.59;5069289;28;21128;-63
2023/05/09 02:00:50;;;;;;;10.13;8.23;;;;;;;-143.84;93.41;43880.13;5068999;28;20494;-63
2023/05/09 02:03:20;;;;;;;8.77;7.90;;;;;;;-143.84;93.45;43861.06;5069257;28;20450;-63
2023/05/09 02:05:49;;;;;;;11.07;7.60;;;;;;;-143.84;93.51;43868.69;5069330;28;20489;-63
2023/05/09 02:08:20;;;;;;;8.83;6.80;;;;;;;-143.84;93.31;43861.06;5068792;28;20495;-63
2023/05/09 02:10:48;;;;;;;12.27;8.00;;;;;;;-143.84;93.49;43882.00;5069236;28;20447;-63
2023/05/09 02:13:16;;;;;;;14.93;7.40;;;;;;;-143.84;93.42;43882.00;5068871;28;20481;-63
2023/05/09 02:15:44;;;;;;;9.73;7.33;;;;;;;-143.84;93.70;43878.22;5069075;28;20429;-64
2023/05/09 02:18:11;;;;;;;9.30;8.23;;;;;;;-143.84;93.72;43880.13;5069063;28;20441;-64
2023/05/09 02:20:40;;;;;;;10.50;7.57;;;;;;;-143.84;93.65;43883.91;5068913;28;20491;-63
2023/05/09 02:23:07;;;;;;;11.50;8.20;;;;;;;-143.84;93.65;43887.72;5068079;28;20506;-63
2023/05/09 02:25:34;;;;;;;15.40;8.03;;;;;;;-143.84;93.55;43883.91;5068699;28;20433;-63
2023/05/09 02:28:02;;;;;;;11.20;8.40;;;;;;;-143.84;93.74;43885.81;5068779;28;20442;-63
2023/05/09 02:30:36;;;;;;;9.20;8.27;;;;;;;-143.84;93.68;43876.31;5068778;28;20449;-63
2023/05/09 02:33:07;;;;;;;10.00;9.00;;;;;;;-143.84;93.68;43897.25;5069003;28;21444;-63
2023/05/09 02:35:35;;;;;;;8.63;7.90;;;;;;;-143.84;93.85;43923.91;5068746;28;20498;-63
2023/05/09 02:38:03;;;;;;;12.70;8.63;;;;;;;-143.84;94.08;43893.44;5069199;28;20445;-63
2023/05/09 02:40:31;;;;;;;10.10;8.07;;;;;;;-143.84;94.17;43897.25;5068994;28;20441;-63
2023/05/09 02:42:58;;;;;;;14.77;9.80;;;;;;;-143.84;94.68;43918.19;5068825;28;20433;-63
2023/05/09 02:45:25;;;;;;;14.57;9.67;;;;;;;-143.84;94.94;43920.09;5068647;28;20429;-63
2023/05/09 02:47:52;;;;;;;9.43;8.37;;;;;;;-143.84;95.23;43929.59;5068600;28;20518;-63
2023/05/09 02:50:19;;;;;;;12.20;9.50;;;;;;;-143.84;95.33;43939.13;5068724;28;20815;-63
2023/05/09 02:52:47;;;;;;;19.50;10.20;;;;;;;-143.84;95.47;43952.44;5068333;28;20534;-63
2023/05/09 02:55:15;;;;;;;13.27;9.80;;;;;;;-143.84;95.72;43956.25;5068855;28;20463;-63
2023/05/09 02:57:42;;;;;;;11.40;10.07;;;;;;;-143.84;95.71;43969.59;5068641;28;20445;-63
2023/05/09 03:00:11;;;;;;;12.10;10.17;;;;;;;-143.84;95.72;43979.09;5068621;28;20520;-63
2023/05/09 03:02:38;;;;;;;13.30;9.90;;;;;;;-143.84;95.75;43960.06;5068574;28;20815;-63
2023/05/09 03:05:06;;;;;;;12.10;9.80;;;;;;;-143.84;95.86;43977.19;5068535;28;20538;-63
2023/05/09 03:07:33;;;;;;;11.50;9.60;;;;;;;-143.84;96.06;43982.91;5068473;28;20860;-63
2023/05/09 03:10:00;;;;;;;12.67;9.80;;;;;;;-143.84;96.05;43973.38;5068417;28;20460;-63
2023/05/09 03:12:29;;;;;;;18.00;9.37;;;;;;;-143.84;95.64;43975.28;5068698;28;20490;-63
2023/05/09 03:14:56;;;;;;;14.23;9.10;;;;;;;-143.84;95.87;43977.19;5068306;28;20833;-63
2023/05/09 03:17:23;;;;;;;11.57;10.20;;;;;;;-143.84;95.74;43958.16;5068746;28;20880;-63
2023/05/09 03:19:50;;;;;;;10.07;8.67;;;;;;;-143.84;95.82;43963.88;5068192;28;20941;-63
2023/05/09 03:22:17;;;;;;;10.37;8.90;;;;;;;-143.84;95.70;43969.59;5068674;28;20869;-63
2023/05/09 03:24:44;;;;;;;12.83;9.50;;;;;;;-143.84;95.82;43958.16;5081478;28;20513;-63
2023/05/09 03:27:11;;;;;;;10.80;9.63;;;;;;;-143.84;95.84;43986.72;5088562;28;20440;-63
2023/05/09 03:29:40;;;;;;;11.63;9.30;;;;;;;-143.84;95.79;43988.63;5088619;28;20867;-63
2023/05/09 03:32:07;;;;;;;10.17;8.63;;;;;;;-143.84;96.05;43990.53;5088411;28;20470;-63
2023/05/09 03:34:34;;;;;;;11.70;8.63;;;;;;;-143.84;96.01;43979.09;5091073;28;20520;-63
2023/05/09 03:37:01;;;;;;;11.87;9.30;;;;;;;-143.84;95.87;43988.63;5091866;28;20444;-64
2023/05/09 03:39:28;;;;;;;11.53;9.60;;;;;;;-143.84;95.82;43971.47;5091503;28;20436;-64
2023/05/09 03:41:55;;;;;;;11.07;9.43;;;;;;;-143.84;95.91;43975.28;5090930;28;20469;-65
2023/05/09 03:44:22;;;;;;;9.87;8.87;;;;;;;-143.84;96.06;43979.09;5091845;28;20436;-64
2023/05/09 03:46:51;;;;;;;11.37;9.50;;;;;;;-143.84;96.07;43979.09;5092216;28;20880;-63
2023/05/09 03:49:18;;;;;;;10.43;9.33;;;;;;;-143.84;95.89;43981.00;5091851;28;20448;-64
2023/05/09 03:51:45;;;;;;;9.30;8.30;;;;;;;-143.84;95.76;43965.78;5091503;28;20467;-65
2023/05/09 03:54:12;;;;;;;9.63;7.90;;;;;;;-143.84;95.99;43986.72;5091267;28;20475;-64
2023/05/09 03:56:39;;;;;;;10.20;8.83;;;;;;;-143.84;95.95;43967.69;5091353;28;20448;-65
2023/05/09 03:59:06;;;;;;;10.73;9.33;;;;;;;-143.84;95.73;43956.25;5091466;28;20425;-65
2023/05/09 04:01:33;;;;;;;12.07;10.37;;;;;;;-143.84;95.35;43971.47;5088585;28;20497;-65
2023/05/09 04:04:02;;;;;;;13.70;8.30;;;;;;;-143.84;95.36;43960.06;5091939;28;20490;-66
2023/05/09 04:06:29;;;;;;;10.70;8.50;;;;;;;-143.84;95.30;43969.59;5074386;28;20537;-65
2023/05/09 04:08:57;;;;;;;11.60;9.50;;;;;;;-143.84;95.07;43944.84;5067814;28;20966;-65
2023/05/09 04:11:24;;;;;;;15.47;8.83;;;;;;;-143.84;94.84;43942.94;5070586;28;20449;-64
2023/05/09 04:13:51;;;;;;;11.70;9.17;;;;;;;-143.84;95.08;43965.78;5071003;28;20485;-64
2023/05/09 04:16:18;;;;;;;15.43;9.60;;;;;;;-143.84;95.18;43950.53;5071118;28;20445;-64
2023/05/09 04:18:45;;;;;;;9.83;8.83;;;;;;;-143.84;94.76;43960.06;5070866;28;20510;-64
2023/05/09 04:21:14;;;;;;;10.13;9.10;;;;;;;-143.84;94.08;43897.25;5070685;28;20441;-64
2023/05/09 04:23:42;;;;;;;11.10;9.17;;;;;;;-143.84;93.27;43880.13;5070731;28;20450;-65
2023/05/09 04:26:11;;;;;;;8.90;7.93;;;;;;;-143.84;91.38;43832.53;5070913;28;20503;-64
2023/05/09 04:28:38;;;;;;;8.23;7.40;;;;;;;-143.84;89.45;43815.41;5071045;28;20446;-64
2023/05/09 04:31:05;;;;;;;9.30;8.27;;;;;;;-143.84;88.98;43855.38;5070663;28;20450;-63
2023/05/09 04:33:32;;;;;;;8.43;7.53;;;;;;;-143.84;88.30;43889.63;5070732;28;20835;-64
2023/05/09 04:35:59;;;;;;;11.70;7.73;;;;;;;-143.84;87.45;44070.47;5070864;28;20515;-64
2023/05/09 04:38:28;;;;;;;10.03;8.10;;;;;;;-143.84;87.68;43994.31;5070734;28;20438;-64
2023/05/09 04:40:55;;;;;;;7.67;6.87;;;;;;;-143.84;87.71;43986.72;5070587;28;20445;-64
2023/05/09 04:43:25;;;;;;;9.17;8.10;;;;;;;-143.84;88.30;43933.41;5070897;28;20433;-64
2023/05/09 04:45:52;;;;;;;9.30;8.00;;;;;;;-143.84;88.53;43914.38;5069722;28;20548;-64
2023/05/09 04:48:19;;;;;;;10.30;8.03;;;;;;;-143.84;88.63;43872.50;5070728;28;20437;-64
2023/05/09 04:50:47;;;;;;;12.47;7.67;;;;;;;-143.84;89.33;43805.88;5070594;28;20989;-64
2023/05/09 04:53:14;;;;;;;8.70;7.33;;;;;;;-143.84;89.21;43834.44;5070438;28;20487;-64
2023/05/09 04:55:43;;;;;;;7.27;6.57;;;;;;;-143.84;89.10;43813.50;5070716;28;20438;-64
2023/05/09 04:58:10;;;;;;;11.00;8.00;;;;;;;-143.84;89.57;43803.97;5070325;28;20875;-64
2023/05/09 05:00:37;;;;;;;9.37;7.53;;;;;;;-143.84;89.28;43828.72;5070028;28;20433;-64
2023/05/09 05:03:04;;;;;;;9.33;8.30;;;;;;;-143.84;89.07;43864.88;5070255;28;20956;-64
2023/05/09 05:05:31;;;;;;;7.67;6.93;;;;;;;-143.84;89.02;43823.00;5070064;28;20497;-64
2023/05/09 05:07:58;;;;;;;11.10;7.83;;;;;;;-143.84;89.27;43823.00;5070499;28;20460;-64
2023/05/09 05:10:26;;;;;;;9.60;7.77;;;;;;;-143.84;88.91;43815.41;5070205;28;20445;-64
2023/05/09 05:12:54;;;;;;;16.83;7.83;;;;;;;-143.84;89.02;43864.88;5070041;28;20442;-64
2023/05/09 05:15:21;;;;;;;9.27;7.00;;;;;;;-143.84;88.70;43887.72;5070121;28;20473;-64
2023/05/09 05:17:49;;;;;;;8.50;6.70;;;;;;;-143.84;88.13;43929.59;5069799;28;20514;-64
2023/05/09 05:20:16;;;;;;;10.47;6.50;;;;;;;-143.84;88.45;43916.28;5069950;28;20851;-64
2023/05/09 05:22:43;;;;;;;11.43;7.93;;;;;;;-143.84;87.42;44064.75;5069437;28;20437;-64
2023/05/09 05:25:11;;;;;;;7.40;6.23;;;;;;;-143.84;87.59;44062.84;5069662;28;21026;-64
2023/05/09 05:27:38;;;;;;;10.03;7.67;;;;;;;-143.84;87.45;44066.66;5069783;28;20456;-64
2023/05/09 05:30:08;;;;;;;15.40;5.90;;;;;;;-143.84;87.39;44057.16;5069531;28;20445;-64
2023/05/09 05:32:35;;;;;;;8.50;5.93;;;;;;;-143.84;87.82;43965.78;5069895;28;20499;-64
2023/05/09 05:35:03;;;;;;;9.30;6.60;;;;;;;-143.84;88.02;43902.97;5069659;28;20473;-64
2023/05/09 05:37:30;;;;;;;12.97;6.10;;;;;;;-143.84;87.67;43967.69;5069941;28;20560;-64
2023/05/09 05:39:58;;;;;;;10.53;5.70;;;;;;;-143.84;84.97;44590.19;5069607;28;20445;-64
2023/05/09 05:42:25;;;;;;;10.50;5.10;;;;;;;-143.84;80.76;45016.69;5069628;28;20448;-64
2023/05/09 05:44:52;;;;;;;4.60;4.30;;;;;;;-143.84;78.77;45033.84;5069537;28;20479;-64
2023/05/09 05:47:20;;;;;;;4.63;4.23;;;;;;;-143.84;76.68;45077.63;5069971;28;21207;-64
2023/05/09 05:49:47;;;;;;;5.10;4.60;;;;;;;-143.84;74.28;45094.78;5069459;28;20456;-72
2023/05/09 05:52:14;;;;;;;10.17;4.70;;;;;;;-143.84;74.75;45083.34;5068966;28;20448;-73
2023/05/09 05:54:41;;;;;;;5.30;4.30;;;;;;;-143.84;74.24;45083.34;5069201;28;20488;-73
2023/05/09 05:57:09;;;;;;;4.90;4.40;;;;;;;-143.84;73.19;45092.88;5069262;28;20494;-73
2023/05/09 05:59:36;;;;;;;6.97;4.80;;;;;;;-143.84;71.85;45100.47;5069036;28;20491;-73
2023/05/09 06:02:03;;;;;;;5.37;4.90;;;;;;;-143.84;70.03;45121.44;5069376;28;20953;-72
2023/05/09 06:04:31;;;;;;;5.97;4.60;;;;;;;-143.84;70.14;45108.09;5069313;28;20449;-72
2023/05/09 06:06:58;;;;;;;5.77;4.87;;;;;;;-143.84;71.14;45106.19;5069206;28;20950;-73
2023/05/09 06:09:26;;;;;;;4.80;4.27;;;;;;;-143.84;71.28;45119.53;5069176;28;20445;-73
2023/05/09 06:11:53;;;;;;;4.67;4.27;;;;;;;-143.84;71.48;45111.91;5069261;28;20446;-73
2023/05/09 06:14:21;;;;;;;5.87;4.03;;;;;;;-143.84;72.11;45100.47;5069105;28;20465;-73
2023/05/09 06:16:48;;;;;;;6.43;4.40;;;;;;;-143.84;72.53;45102.38;5069032;28;20506;-73
2023/05/09 06:19:15;;;;;;;15.70;5.10;;;;;;;-143.84;73.33;45102.38;5068810;28;20453;-73
2023/05/09 06:21:43;;;;;;;5.17;4.67;;;;;;;-143.84;72.76;45121.44;5069113;28;20437;-73
2023/05/09 06:24:11;;;;;;;6.43;4.20;;;;;;;-143.84;74.21;45115.72;5069229;28;20821;-73
2023/05/09 06:26:38;;;;;;;11.93;4.30;;;;;;;-143.84;74.03;45106.19;5068997;28;20441;-73
2023/05/09 06:29:06;;;;;;;8.20;4.93;;;;;;;-143.84;73.94;45096.66;5069131;28;21087;-74
2023/05/09 06:31:37;;;;;;;6.83;4.63;;;;;;;-143.84;74.91;45085.25;5069190;28;20454;-74
2023/05/09 06:34:04;;;;;;;6.50;5.00;;;;;;;-143.84;75.28;45106.19;5068884;28;20487;-74
2023/05/09 06:36:31;;;;;;;6.13;5.10;;;;;;;-143.84;76.37;45098.56;5068978;28;20441;-74
2023/05/09 06:38:59;;;;;;;6.70;5.80;;;;;;;-143.84;76.15;45079.53;5068978;28;20438;-74
2023/05/09 06:41:27;;;;;;;10.20;5.40;;;;;;;-143.84;75.43;45075.72;5068335;28;20449;-73
2023/05/09 06:43:54;;;;;;;8.40;5.43;;;;;;;-143.84;76.15;45094.78;5068352;28;20502;-73
2023/05/09 06:46:21;;;;;;;10.03;5.30;;;;;;;-143.84;75.79;45102.38;5068936;28;20509;-74
2023/05/09 06:48:48;;;;;;;7.13;4.93;;;;;;;-143.84;74.61;45102.38;5068828;28;20506;-74
2023/05/09 06:51:15;;;;;;;6.20;5.17;;;;;;;-143.84;75.24;45098.56;5068775;28;20441;-73
2023/05/09 06:53:42;;;;;;;7.10;4.70;;;;;;;-143.84;75.13;45094.78;5068647;28;20480;-73
2023/05/09 06:56:11;;;;;;;8.30;5.80;;;;;;;-143.84;75.23;45098.56;5068645;28;20848;-73
2023/05/09 06:58:38;;;;;;;10.37;4.87;;;;;;;-143.84;74.39;45102.38;5069025;28;20445;-73
2023/05/09 07:01:06;;;;;;;5.93;4.97;;;;;;;-143.84;75.04;45083.34;5068588;28;21019;-73
2023/05/09 07:03:33;;;;;;;5.40;5.00;;;;;;;-143.84;74.67;45102.38;5068764;28;20443;-73
2023/05/09 07:06:00;;;;;;;8.07;5.00;;;;;;;-143.84;75.18;45115.72;5068550;28;20496;-73
2023/05/09 07:08:27;;;;;;;5.73;4.97;;;;;;;-143.84;75.55;45087.16;5069034;28;20447;-73
2023/05/09 07:10:54;;;;;;;6.50;4.50;;;;;;;-143.84;74.71;45100.47;5071778;28;20450;-74
2023/05/09 07:13:23;;;;;;;9.40;5.10;;;;;;;-143.84;74.74;45113.81;5072365;28;20436;-73
2023/05/09 07:15:50;;;;;;;9.97;5.20;;;;;;;-143.84;74.98;45102.38;5072258;28;20509;-72
2023/05/09 07:18:17;;;;;;;6.33;4.73;;;;;;;-143.84;74.97;45123.34;5072522;28;20449;-73
2023/05/09 07:20:44;;;;;;;8.47;5.53;;;;;;;-143.84;75.15;45081.44;5072399;28;20470;-72
2023/05/09 07:23:11;;;;;;;5.23;4.50;;;;;;;-143.84;74.80;45079.53;5072245;28;20437;-73
2023/05/09 07:25:38;;;;;;;7.83;4.67;;;;;;;-143.84;75.47;45098.56;5072122;28;20942;-73
2023/05/09 07:28:06;;;;;;;6.43;4.93;;;;;;;-143.84;75.84;45096.66;5062782;28;20499;-72
2023/05/09 07:30:34;;;;;;;12.07;5.60;;;;;;;-143.84;75.41;45110.00;5052255;28;20449;-73
2023/05/09 07:33:01;;;;;;;8.87;6.07;;;;;;;-143.84;75.81;45100.47;5052109;28;20438;-73
2023/05/09 07:35:28;;;;;;;7.70;5.37;;;;;;;-143.84;76.43;45092.88;5051726;28;20842;-73
2023/05/09 07:37:55;;;;;;;6.30;4.40;;;;;;;-143.84;76.45;45089.06;5052031;28;20449;-73
2023/05/09 07:40:23;;;;;;;7.10;4.93;;;;;;;-143.84;75.74;45071.91;5052070;28;20439;-73
2023/05/09 07:42:52;;;;;;;5.60;4.70;;;;;;;-143.84;76.23;45102.38;5052288;28;20450;-72
2023/05/09 07:45:19;;;;;;;7.20;3.83;;;;;;;-143.84;75.41;45089.06;5051787;28;20526;-72
2023/05/09 07:47:48;;;;;;;5.27;4.77;;;;;;;-143.84;75.64;45085.25;5051820;28;20434;-71
2023/05/09 07:50:15;;;;;;;7.03;4.03;;;;;;;-143.84;75.71;45100.47;5051693;28;20450;-71
2023/05/09 07:52:43;;;;;;;5.87;5.07;;;;;;;-143.84;75.83;45071.91;5051895;28;20456;-71
2023/05/09 07:55:11;;;;;;;6.70;4.67;;;;;;;-143.84;75.11;45079.53;5051555;28;20481;-72
2023/05/09 07:57:38;;;;;;;9.53;5.27;;;;;;;-143.84;75.52;45110.00;5051547;28;20449;-71
2023/05/09 08:00:07;;;;;;;7.30;4.50;;;;;;;-143.84;75.84;45102.38;5051596;28;20910;-71
2023/05/09 08:02:34;;;;;;;6.73;4.80;;;;;;;-143.84;75.55;45079.53;5051307;28;20454;-71
2023/05/09 08:05:03;;;;;;;4.40;4.10;;;;;;;-143.84;74.69;45083.34;5054835;28;20481;-71
2023/05/09 08:07:30;;;;;;;5.10;4.33;;;;;;;-143.84;74.27;45089.06;5071377;28;20507;-71
2023/05/09 08:09:57;;;;;;;9.03;4.30;;;;;;;-143.84;74.00;45077.63;5071433;28;20445;-71
2023/05/09 08:12:24;;;;;;;9.47;4.43;;;;;;;-143.84;75.14;45070.00;5071618;28;20436;-71
2023/05/09 08:14:51;;;;;;;5.53;3.90;;;;;;;-143.84;70.47;45117.63;5071100;28;20477;-71
2023/05/09 08:17:18;;;;;;;5.30;3.73;;;;;;;-143.84;70.88;45111.91;5071215;28;20445;-71
2023/05/09 08:19:45;;;;;;;4.70;4.17;;;;;;;-143.84;71.50;45081.44;5070176;28;20441;-71
2023/05/09 08:22:18;;;;;;;5.60;4.30;;;;;;;-143.84;70.71;45083.34;5071133;28;20506;-71
2023/05/09 08:24:45;;;;;;;6.60;3.70;;;;;;;-143.84;69.75;45108.09;5070969;28;20445;-71
2023/05/09 08:27:13;;;;;;;8.50;4.00;;;;;;;-143.84;69.05;45110.00;5070832;28;20441;-71
2023/05/09 08:29:40;;;;;;;6.20;3.83;;;;;;;-143.84;68.78;45140.47;5070459;28;20838;-71
2023/05/09 08:32:08;;;;;;;7.00;4.17;;;;;;;-143.84;67.50;45090.97;5070533;28;20448;-71
2023/05/09 08:34:35;;;;;;;8.83;3.77;;;;;;;-143.84;67.74;45119.53;5070541;28;20488;-71
2023/05/09 08:37:02;;;;;;;4.87;3.60;;;;;;;-143.84;66.44;45102.38;5070029;28;20441;-71
2023/05/09 08:39:33;;;;;;;7.33;4.03;;;;;;;-143.84;64.28;45098.56;5069872;28;20440;-71
2023/05/09 08:42:02;;;;;;;5.50;3.57;;;;;;;-143.84;64.54;45115.72;5070432;28;20448;-71
2023/05/09 08:44:30;;;;;;;3.67;3.37;;;;;;;-143.84;64.87;45094.78;5070293;28;20456;-71
2023/05/09 08:47:00;;;;;;;6.97;3.40;;;;;;;-143.84;65.85;45117.63;5070065;28;20448;-71
2023/05/09 08:49:28;;;;;;;9.93;4.20;;;;;;;-143.84;67.48;45079.53;5070377;28;20441;-71
2023/05/09 08:51:55;;;;;;;5.07;3.70;;;;;;;-143.84;68.40;45110.00;5070398;28;20454;-71
2023/05/09 08:54:23;;;;;;;4.20;3.90;;;;;;;-143.84;66.27;45110.00;5069232;28;20573;-71
2023/05/09 08:56:52;;;;;;;5.47;4.20;;;;;;;-143.84;65.96;45098.56;5069249;28;20437;-71
2023/05/09 08:59:19;;;;;;;5.33;3.63;;;;;;;-143.84;66.56;45129.03;5069470;28;20446;-71
2023/05/09 09:01:47;;;;;;;4.87;3.73;;;;;;;-143.84;68.12;45098.56;5069395;28;20449;-71
2023/05/09 09:04:14;;;;;;;5.33;3.70;;;;;;;-143.84;69.18;45113.81;5068743;28;20457;-71
2023/05/09 09:06:41;;;;;;;6.93;3.77;;;;;;;-143.84;66.06;45092.88;5069089;28;20481;-71
2023/05/09 09:09:09;;;;;;;8.23;4.83;;;;;;;-143.84;65.16;45106.19;5069810;28;20498;-71
2023/05/09 09:11:37;;;;;;;9.00;4.70;;;;;;;-143.84;65.43;45106.19;5070347;28;20443;-71
2023/05/09 09:14:12;;;;;;;12.60;4.33;;;;;;;-143.84;66.44;45110.00;5070182;28;20437;-72
2023/05/09 09:16:41;;;;;;;4.43;3.97;;;;;;;-143.84;66.51;45108.09;5070074;28;20536;-71
2023/05/09 09:19:12;;;;;;;7.40;3.80;;;;;;;-143.84;66.44;45090.97;5070304;28;20449;-71
2023/05/09 09:21:41;;;;;;;4.27;3.67;;;;;;;-143.84;66.09;45117.63;5069975;28;21265;-71
2023/05/09 09:24:10;;;;;;;8.60;4.77;;;;;;;-143.84;66.58;45111.91;5069903;28;20540;-70
2023/05/09 09:26:48;;;;;;;5.30;4.27;;;;;;;-143.84;67.46;45098.56;5069907;28;20453;-70
2023/05/09 09:29:17;;;;;;;9.90;4.83;;;;;;;-143.84;67.21;45108.09;5069654;28;20437;-70
2023/05/09 09:31:45;;;;;;;8.30;4.50;;;;;;;-143.84;67.89;45115.72;5069177;28;20445;-71
2023/05/09 09:34:13;;;;;;;6.53;4.57;;;;;;;-143.84;68.69;45070.00;5069699;28;20524;-71
2023/05/09 09:36:41;;;;;;;4.23;3.93;;;;;;;-143.84;68.95;45110.00;5069023;28;20443;-71
2023/05/09 09:39:08;;;;;;;4.80;4.00;;;;;;;-143.84;69.08;45104.28;5069463;28;20978;-71
2023/05/09 09:41:36;;;;;;;7.90;4.27;;;;;;;-143.84;67.34;45111.91;5069800;28;20472;-71
2023/05/09 09:44:10;;;;;;;4.43;4.03;;;;;;;-143.84;67.10;45102.38;5069582;28;20450;-71
2023/05/09 09:46:47;;;;;;;8.83;4.60;;;;;;;-143.84;66.61;45108.09;5069104;28;20458;-71
2023/05/09 09:49:15;;;;;;;16.63;4.83;;;;;;;-143.84;67.99;45106.19;5069844;28;20437;-71
2023/05/09 09:51:43;;;;;;;6.63;4.90;;;;;;;-143.84;69.03;45100.47;5069574;28;20437;-71
2023/05/09 09:54:11;;;;;;;9.63;4.40;;;;;;;-143.84;69.74;45104.28;5069517;28;20441;-71
2023/05/09 09:56:40;;;;;;;6.43;4.90;;;;;;;-143.84;70.25;45136.66;5069376;28;20516;-71
2023/05/09 09:59:11;;;;;;;13.53;4.50;;;;;;;-143.84;70.96;45119.53;5069106;28;20502;-72
2023/05/09 10:01:56;;;;;;;7.07;4.10;;;;;;;-143.84;69.60;45123.34;5069547;28;20445;-72
2023/05/09 10:04:24;;;;;;;7.13;4.10;;;;;;;-143.84;68.13;45119.53;5067325;28;20510;-71
2023/05/09 10:06:55;;;;;;;7.53;3.50;;;;;;;-143.84;67.83;45108.09;5068789;28;20505;-72
2023/05/09 10:09:23;;;;;;;5.97;3.40;;;;;;;-143.84;67.03;45085.25;5069376;28;20437;-71
2023/05/09 10:11:53;;;;;;;3.90;3.43;;;;;;;-143.84;66.84;45121.44;5068519;28;20511;-71
2023/05/09 10:14:22;;;;;;;6.43;3.53;;;;;;;-143.84;67.51;45150.00;5069112;28;20449;-72
2023/05/09 10:16:50;;;;;;;3.73;3.43;;;;;;;-143.84;66.89;45106.19;5069098;28;20481;-72
2023/05/09 10:19:21;;;;;;;7.63;3.33;;;;;;;-143.84;66.41;45127.13;5069012;28;20441;-72
2023/05/09 10:21:52;;;;;;;19.37;3.30;;;;;;;-143.84;66.34;45119.53;5069063;28;20445;-71
2023/05/09 10:24:27;;;;;;;3.97;3.27;;;;;;;-143.84;66.27;45108.09;5069109;28;20540;-71
2023/05/09 10:27:00;;;;;;;5.80;3.20;;;;;;;-143.84;67.89;45098.56;5069110;28;20424;-72
2023/05/09 10:29:31;;;;;;;4.17;2.93;;;;;;;-143.84;66.52;45125.22;5068953;28;20822;-72
2023/05/09 10:32:01;;;;;;;4.67;2.97;;;;;;;-143.84;67.32;45113.81;5068791;28;21007;-72
2023/05/09 10:34:34;;;;;;;6.70;3.37;;;;;;;-143.84;68.36;45129.03;5068799;28;20472;-72
2023/05/09 10:37:01;;;;;;;4.80;2.83;;;;;;;-143.84;68.07;45125.22;5069056;28;20851;-72
2023/05/09 10:39:30;;;;;;;3.50;3.13;;;;;;;-143.84;66.84;45106.19;5068481;28;20441;-72
2023/05/09 10:42:00;;;;;;;3.23;2.93;;;;;;;-143.84;67.31;45090.97;5068942;28;20894;-72
2023/05/09 10:44:27;;;;;;;3.10;2.90;;;;;;;-143.84;67.99;45121.44;5068785;28;20480;-71
2023/05/09 10:46:55;;;;;;;2.97;2.77;;;;;;;-143.84;67.94;45098.56;5069024;28;20448;-71
2023/05/09 10:49:23;;;;;;;3.03;2.83;;;;;;;-143.84;68.41;45085.25;5068711;28;20437;-72
2023/05/09 10:51:52;;;;;;;6.47;3.10;;;;;;;-143.84;68.55;45096.66;5069023;28;20802;-71
2023/05/09 10:54:27;;;;;;;3.60;2.60;;;;;;;-143.84;69.15;45108.09;5068801;28;20449;-71
2023/05/09 10:56:55;;;;;;;6.10;3.10;;;;;;;-143.84;70.93;45094.78;5068908;28;20476;-71
2023/05/09 10:59:34;;;;;;;6.90;3.53;;;;;;;-143.84;72.28;45081.44;5068762;28;21014;-71
2023/05/09 11:02:03;;;;;;;6.33;4.13;;;;;;;-143.84;73.53;45110.00;5068481;28;21049;-71
2023/05/09 11:04:31;;;;;;;6.40;3.80;;;;;;;-143.84;74.61;45081.44;5068388;28;20506;-71
2023/05/09 11:07:00;;;;;;;6.23;4.00;;;;;;;-143.84;74.89;45090.97;5068676;28;20476;-71
2023/05/09 11:09:31;;;;;;;7.90;3.90;;;;;;;-143.84;75.58;45087.16;5068620;28;21052;-72
2023/05/09 11:12:02;;;;;;;10.60;4.17;;;;;;;-143.84;75.51;45071.91;5068615;28;20460;-71
2023/05/09 11:14:33;;;;;;;5.57;3.47;;;;;;;-143.84;74.84;45083.34;5068762;28;20445;-71
2023/05/09 11:17:02;;;;;;;8.33;3.77;;;;;;;-143.84;74.15;45096.66;5068706;28;20542;-71
2023/05/09 11:19:38;;;;;;;5.83;3.80;;;;;;;-143.84;73.57;45096.66;5068585;28;20540;-72